Time;durP1;ratioP1;P1;durP2;ratioP2;P2;SDS_P1;SDS_P2;PMS_P1;PMS_P2;Temp;Humidity;BMP_temperature;BMP_pressure;BME280_temperature;BME280_humidity;BME280_pressure;Samples;Min_cycle;Max_cycle;Signal;HPM_P1;HPM_P2
2023/10/23 00:03:54;;;;;;;2.10;0.52;;;;;;;20.07;47.43;101166.31;16107875;19;130506;-47
2023/10/23 00:09:16;;;;;;;5.00;0.90;;;;;;;20.06;47.48;101171.03;16106855;19;129725;-44
2023/10/23 00:14:38;;;;;;;7.05;1.17;;;;;;;20.04;47.76;101175.16;16103873;19;130908;-44
2023/10/23 00:20:02;;;;;;;2.58;0.80;;;;;;;20.02;47.47;101174.56;16104186;19;130265;-46
2023/10/23 00:25:24;;;;;;;4.20;1.08;;;;;;;19.99;47.73;101176.75;16106818;19;130631;-44
2023/10/23 00:30:45;;;;;;;2.20;0.63;;;;;;;19.98;47.99;101175.03;16107710;19;129993;-43
2023/10/23 00:36:08;;;;;;;4.70;0.80;;;;;;;19.96;47.92;101179.16;16107888;19;129433;-44
2023/10/23 00:41:30;;;;;;;2.42;0.75;;;;;;;19.95;47.82;101186.63;16112101;19;130426;-45
2023/10/23 00:46:52;;;;;;;3.35;0.80;;;;;;;19.93;47.58;101190.75;16109684;19;130775;-45
2023/10/23 00:52:14;;;;;;;7.60;0.88;;;;;;;19.93;47.79;101194.38;16111890;19;131518;-47
2023/10/23 00:57:37;;;;;;;2.95;0.85;;;;;;;19.89;47.99;101192.34;16108367;19;130132;-44
2023/10/23 01:02:59;;;;;;;4.32;0.82;;;;;;;19.88;47.64;101185.13;16105573;19;130618;-42
2023/10/23 01:08:21;;;;;;;3.58;0.70;;;;;;;19.86;48.02;101188.13;16112531;19;129823;-41
2023/10/23 01:13:43;;;;;;;2.05;0.50;;;;;;;19.84;47.65;101187.53;16120603;19;132195;-42
2023/10/23 01:19:05;;;;;;;3.05;0.60;;;;;;;19.82;47.89;101184.16;16121597;19;129670;-42
2023/10/23 01:24:30;;;;;;;3.63;0.82;;;;;;;19.82;47.67;101192.47;16120425;19;130823;-43
2023/10/23 01:29:52;;;;;;;2.20;0.60;;;;;;;19.79;47.85;101198.56;16121936;19;129740;-42
2023/10/23 01:35:13;;;;;;;2.63;1.10;;;;;;;19.77;47.91;101195.19;16116602;19;131577;-43
2023/10/23 01:40:35;;;;;;;2.10;0.80;;;;;;;19.76;48.10;101197.09;16113984;19;136003;-43
2023/10/23 01:45:58;;;;;;;1.90;0.50;;;;;;;19.75;47.89;101189.03;16118749;19;129961;-43
2023/10/23 01:51:20;;;;;;;3.25;0.65;;;;;;;19.73;47.82;101189.28;16117582;19;130414;-45
2023/10/23 01:56:42;;;;;;;2.95;0.73;;;;;;;19.73;48.13;101193.97;16116795;19;130230;-46
2023/10/23 02:02:04;;;;;;;2.55;0.50;;;;;;;19.69;48.26;101188.09;16112861;19;132161;-45
2023/10/23 02:07:27;;;;;;;2.60;0.50;;;;;;;19.69;48.16;101193.63;16119648;19;130062;-48
2023/10/23 02:12:49;;;;;;;3.40;0.80;;;;;;;19.66;48.01;101186.66;16121346;19;130237;-48
2023/10/23 02:18:11;;;;;;;1.90;0.55;;;;;;;19.65;48.29;101190.50;16114744;19;130107;-46
2023/10/23 02:23:32;;;;;;;1.98;0.80;;;;;;;19.63;48.18;101194.63;16121877;19;131057;-43
2023/10/23 02:29:09;;;;;;;1.80;0.68;;;;;;;19.61;47.83;101194.88;16116947;19;129699;-48
2023/10/23 02:34:31;;;;;;;1.63;0.57;;;;;;;19.61;47.99;101197.63;16112719;19;130938;-43
2023/10/23 02:39:53;;;;;;;1.35;0.50;;;;;;;19.59;48.03;101205.38;16112385;19;131084;-46
2023/10/23 02:45:15;;;;;;;1.35;0.68;;;;;;;19.58;47.76;101189.78;16113908;19;133293;-49
2023/10/23 02:50:37;;;;;;;3.08;0.57;;;;;;;19.56;48.15;101196.69;16112360;19;129855;-45
2023/10/23 02:55:59;;;;;;;1.65;0.50;;;;;;;19.56;48.06;101194.78;16111074;19;130472;-46
2023/10/23 03:01:23;;;;;;;1.42;0.50;;;;;;;19.54;47.72;101185.84;16116046;19;130443;-48
2023/10/23 03:06:45;;;;;;;2.35;0.80;;;;;;;19.52;47.68;101194.41;16109312;19;131435;-44
2023/10/23 03:12:07;;;;;;;0.57;0.30;;;;;;;19.51;47.96;101195.50;16114852;19;130661;-43
2023/10/23 03:17:30;;;;;;;1.95;0.60;;;;;;;19.51;47.75;101197.44;16108503;19;130414;-42
2023/10/23 03:22:52;;;;;;;1.25;0.60;;;;;;;19.48;47.94;101198.78;16106473;19;131717;-44
2023/10/23 03:28:14;;;;;;;1.17;0.60;;;;;;;19.47;47.87;101196.22;16109692;19;129668;-45
2023/10/23 03:33:36;;;;;;;1.83;0.60;;;;;;;19.47;47.97;101201.78;16107584;19;130049;-43
2023/10/23 03:38:57;;;;;;;2.55;0.50;;;;;;;19.47;47.68;101208.19;16108863;19;130899;-43
2023/10/23 03:44:19;;;;;;;2.33;0.70;;;;;;;19.45;48.13;101210.34;16109405;19;130550;-45
2023/10/23 03:49:41;;;;;;;1.40;0.43;;;;;;;19.45;47.79;101215.03;16110266;19;131433;-42
2023/10/23 03:55:04;;;;;;;1.42;0.57;;;;;;;19.44;48.25;101216.16;16107462;19;129428;-44
2023/10/23 04:00:26;;;;;;;0.80;0.40;;;;;;;19.42;48.17;101212.78;16104545;19;131173;-43
2023/10/23 04:05:48;;;;;;;1.70;0.63;;;;;;;19.41;47.82;101216.66;16106054;19;129651;-44
2023/10/23 04:11:13;;;;;;;1.75;0.43;;;;;;;19.41;48.01;101211.09;16107439;19;129658;-46
2023/10/23 04:16:35;;;;;;;1.63;0.50;;;;;;;19.40;48.21;101206.63;16103589;19;134640;-43
2023/10/23 04:21:57;;;;;;;0.95;0.47;;;;;;;19.37;48.24;101203.25;16102272;19;130040;-42
2023/10/23 04:27:20;;;;;;;0.70;0.30;;;;;;;19.36;48.17;101207.13;16104504;19;130164;-42
2023/10/23 04:32:42;;;;;;;0.90;0.40;;;;;;;19.36;47.80;101207.13;16101257;19;132746;-42
2023/10/23 04:38:04;;;;;;;1.17;0.50;;;;;;;19.33;47.79;101202.03;16098098;19;129271;-42
2023/10/23 04:43:26;;;;;;;1.20;0.43;;;;;;;19.33;48.18;101209.53;16101514;19;131519;-42
2023/10/23 04:48:48;;;;;;;1.60;0.52;;;;;;;19.31;47.95;101207.03;16108224;19;131161;-42
2023/10/23 04:54:10;;;;;;;0.50;0.35;;;;;;;19.31;48.09;101203.38;16104238;19;130396;-41
2023/10/23 04:59:35;;;;;;;1.48;0.65;;;;;;;19.29;48.00;101200.88;16104397;19;130715;-43
2023/10/23 05:04:57;;;;;;;2.10;0.30;;;;;;;19.29;47.70;101198.09;16099678;19;129753;-43
2023/10/23 05:10:19;;;;;;;0.55;0.35;;;;;;;19.28;47.78;101196.41;16105148;19;131038;-42
2023/10/23 05:15:41;;;;;;;1.13;0.32;;;;;;;19.27;48.03;101197.50;16102247;19;129864;-45
2023/10/23 05:21:07;;;;;;;0.80;0.40;;;;;;;19.27;47.90;101191.94;16102779;19;130125;-41
2023/10/23 05:26:29;;;;;;;0.60;0.38;;;;;;;19.27;47.65;101191.09;16105387;19;130971;-45
2023/10/23 05:31:51;;;;;;;2.00;0.47;;;;;;;19.24;48.21;101181.34;16096748;19;131507;-42
2023/10/23 05:37:13;;;;;;;2.10;0.50;;;;;;;19.24;47.81;101174.94;16102763;19;131812;-45
2023/10/23 05:42:35;;;;;;;0.63;0.50;;;;;;;19.24;47.90;101184.09;16104288;19;130975;-44
2023/10/23 05:47:57;;;;;;;0.57;0.45;;;;;;;19.23;47.59;101185.19;16101216;19;131520;-44
2023/10/23 05:53:19;;;;;;;0.63;0.20;;;;;;;19.22;48.07;101183.50;16106241;19;130113;-42
2023/10/23 05:58:41;;;;;;;0.85;0.40;;;;;;;19.20;47.71;101180.94;16119572;19;130436;-43
2023/10/23 06:04:04;;;;;;;1.83;0.40;;;;;;;19.20;47.71;101171.81;16115469;19;130632;-41
2023/10/23 06:09:29;;;;;;;1.85;0.32;;;;;;;19.18;47.73;101146.25;16117840;19;132212;-42
2023/10/23 06:14:51;;;;;;;1.67;0.50;;;;;;;19.16;47.55;101159.50;16121518;19;129899;-43
2023/10/23 06:20:13;;;;;;;4.07;0.60;;;;;;;19.14;47.92;101173.59;16116373;19;129627;-42
2023/10/23 06:25:35;;;;;;;0.95;0.40;;;;;;;19.16;47.76;101168.66;16119709;19;130642;-46
2023/10/23 06:31:06;;;;;;;2.88;0.43;;;;;;;19.15;48.05;101183.59;16116180;19;129911;-44
2023/10/23 06:36:30;;;;;;;1.05;0.30;;;;;;;19.16;47.68;101185.28;16113272;19;131740;-45
2023/10/23 06:41:52;;;;;;;5.53;0.60;;;;;;;19.17;47.81;101189.75;16116612;19;129131;-47
2023/10/23 06:47:15;;;;;;;4.95;0.68;;;;;;;19.17;47.78;101175.88;16111400;19;130274;-43
2023/10/23 06:52:37;;;;;;;5.97;0.63;;;;;;;19.16;47.77;101178.91;16109301;19;129730;-41
2023/10/23 06:57:59;;;;;;;3.20;0.57;;;;;;;19.13;47.66;101185.78;16118558;19;130415;-43
2023/10/23 07:03:21;;;;;;;4.03;1.00;;;;;;;19.12;47.70;101202.66;16112027;19;130680;-40
2023/10/23 07:08:43;;;;;;;6.53;0.55;;;;;;;19.11;48.08;101196.28;16111497;19;129412;-44
2023/10/23 07:14:05;;;;;;;2.40;0.50;;;;;;;19.10;47.87;101191.81;16112594;19;130466;-43
2023/10/23 07:19:27;;;;;;;4.05;0.63;;;;;;;19.08;47.73;101188.44;16110536;19;131320;-43
2023/10/23 07:24:49;;;;;;;5.90;0.90;;;;;;;19.06;47.88;101185.94;16110839;19;130550;-42
2023/10/23 07:30:13;;;;;;;2.60;0.70;;;;;;;19.07;47.85;101187.63;16110469;19;131721;-42
2023/10/23 07:35:36;;;;;;;5.10;0.80;;;;;;;19.10;47.80;101180.72;16119279;19;132678;-43
2023/10/23 07:41:14;;;;;;;4.15;1.02;;;;;;;19.13;47.85;101171.06;16113422;19;129694;-48
2023/10/23 07:46:36;;;;;;;8.23;0.95;;;;;;;19.14;47.69;101170.81;16114105;19;131751;-39
2023/10/23 07:51:58;;;;;;;6.10;0.77;;;;;;;19.16;47.78;101160.31;16113105;19;131628;-42
2023/10/23 07:57:20;;;;;;;3.90;0.52;;;;;;;19.18;47.84;101168.41;16114200;19;129894;-41
2023/10/23 08:02:42;;;;;;;2.45;0.60;;;;;;;19.22;47.42;101167.72;16113298;19;130935;-41
2023/10/23 08:08:04;;;;;;;4.15;1.00;;;;;;;19.24;47.83;101164.69;16107910;19;130449;-41
2023/10/23 08:13:26;;;;;;;4.95;0.70;;;;;;;19.50;47.20;101162.44;16112694;19;129298;-41
2023/10/23 08:18:48;;;;;;;5.00;0.90;;;;;;;19.73;46.59;101166.22;16107258;19;130997;-40
2023/10/23 08:24:10;;;;;;;3.15;0.70;;;;;;;19.84;46.76;101179.19;16103337;19;131153;-40
2023/10/23 08:29:32;;;;;;;4.97;0.93;;;;;;;20.04;45.97;101177.94;16111040;19;132621;-42
2023/10/23 08:34:54;;;;;;;4.43;0.82;;;;;;;20.26;45.45;101181.66;16110933;19;131128;-41
2023/10/23 08:40:16;;;;;;;6.18;0.82;;;;;;;20.27;45.80;101174.16;16105151;19;130209;-40
2023/10/23 08:45:42;;;;;;;8.07;0.80;;;;;;;20.12;45.54;101183.09;16106398;19;130006;-42
2023/10/23 08:51:07;;;;;;;;;;;;;;;19.94;46.18;101181.34;16107817;19;129958;-41
2023/10/23 08:56:29;;;;;;;4.50;0.90;;;;;;;19.85;46.38;101178.09;16108214;19;129620;-40
2023/10/23 09:01:52;;;;;;;3.97;1.05;;;;;;;19.77;46.29;101164.63;16102323;19;130962;-40
2023/10/23 09:07:21;;;;;;;2.97;0.73;;;;;;;19.66;46.46;101149.72;16107212;19;129664;-42
2023/10/23 09:12:44;;;;;;;3.28;0.70;;;;;;;19.61;46.76;101147.69;16105904;19;130686;-40
2023/10/23 09:18:08;;;;;;;2.08;0.82;;;;;;;19.57;46.43;101140.94;16106516;19;132007;-42
2023/10/23 09:23:30;;;;;;;6.95;0.80;;;;;;;19.53;46.93;101145.31;16108226;19;129078;-40
2023/10/23 09:28:53;;;;;;;4.00;0.80;;;;;;;19.50;47.10;101141.09;16115918;19;129529;-41
2023/10/23 09:34:16;;;;;;;3.75;0.80;;;;;;;19.48;46.61;101143.28;16121257;19;129822;-42
2023/10/23 09:39:39;;;;;;;2.83;0.65;;;;;;;19.45;46.69;101138.22;16125384;19;129362;-43
2023/10/23 09:45:04;;;;;;;3.55;0.80;;;;;;;19.43;47.09;101125.69;16117860;19;130882;-40
2023/10/23 09:50:27;;;;;;;3.03;0.73;;;;;;;19.42;47.14;101133.16;16120708;19;129964;-44
2023/10/23 09:55:54;;;;;;;5.50;0.98;;;;;;;19.40;47.15;101134.50;16123997;19;130836;-41
2023/10/23 10:01:18;;;;;;;2.58;0.80;;;;;;;19.39;46.70;101133.63;16120814;19;129304;-42
2023/10/23 10:06:52;;;;;;;5.38;1.08;;;;;;;19.38;47.19;101121.72;16120292;19;129785;-40
2023/10/23 10:12:17;;;;;;;;;;;;;;;19.32;47.05;101111.59;16121446;19;130492;-41
2023/10/23 10:17:39;;;;;;;3.95;0.93;;;;;;;19.35;47.05;101094.47;16119121;19;129953;-41
2023/10/23 10:23:11;;;;;;;1.27;0.52;;;;;;;19.33;46.80;101088.31;16121057;19;129783;-42
2023/10/23 10:28:37;;;;;;;3.10;0.80;;;;;;;19.31;47.01;101073.00;16114560;19;129672;-41
2023/10/23 10:33:59;;;;;;;3.72;1.27;;;;;;;19.29;47.34;101070.50;16117324;19;130002;-39
2023/10/23 10:39:47;;;;;;;2.65;0.80;;;;;;;19.30;47.25;101072.19;16119095;19;130921;-40
2023/10/23 10:45:14;;;;;;;4.63;0.93;;;;;;;19.28;47.03;101056.84;16118313;19;130833;-40
2023/10/23 10:50:40;;;;;;;4.20;1.15;;;;;;;19.26;47.20;101057.13;16117272;19;131766;-41
2023/10/23 10:56:07;;;;;;;2.70;1.08;;;;;;;19.24;47.22;101042.66;16116725;19;129876;-41
2023/10/23 11:01:30;;;;;;;2.35;0.80;;;;;;;19.25;46.78;101015.78;16118638;19;129869;-42
2023/10/23 11:06:52;;;;;;;2.90;1.05;;;;;;;19.24;46.80;101005.75;16116711;19;129945;-41
2023/10/23 11:12:14;;;;;;;3.25;1.00;;;;;;;19.23;46.72;101002.13;16112612;19;131643;-40
2023/10/23 11:17:36;;;;;;;3.97;0.93;;;;;;;19.26;46.84;100998.88;16111295;19;130866;-41
2023/10/23 11:22:59;;;;;;;2.90;0.90;;;;;;;19.27;47.02;100991.38;16118504;19;130089;-40
2023/10/23 11:28:22;;;;;;;4.85;1.30;;;;;;;19.24;46.96;100967.75;16113671;19;132377;-40
2023/10/23 11:33:51;;;;;;;3.33;0.88;;;;;;;19.27;46.84;100964.50;16110408;19;129520;-41
2023/10/23 11:39:18;;;;;;;3.30;1.00;;;;;;;19.25;46.83;100951.97;16106755;19;129778;-43
2023/10/23 11:44:41;;;;;;;4.32;1.17;;;;;;;19.23;46.63;100930.03;16111829;19;131014;-41
2023/10/23 11:50:10;;;;;;;4.38;1.15;;;;;;;19.24;46.70;100928.09;16111271;19;129406;-38
2023/10/23 11:55:33;;;;;;;4.10;1.00;;;;;;;19.22;46.83;100929.19;16113898;19;131028;-40
2023/10/23 12:00:55;;;;;;;3.97;1.27;;;;;;;19.22;46.63;100928.34;16115902;19;133394;-41
2023/10/23 12:06:17;;;;;;;5.35;1.10;;;;;;;19.20;46.59;100920.25;16104207;19;130134;-40
2023/10/23 12:11:40;;;;;;;3.25;1.13;;;;;;;19.20;46.68;100913.88;16109148;19;130027;-40
2023/10/23 12:17:03;;;;;;;5.63;1.40;;;;;;;19.18;46.93;100888.31;16109863;19;129429;-42
2023/10/23 12:22:25;;;;;;;4.47;1.05;;;;;;;19.19;46.67;100884.44;16109886;19;129585;-40
2023/10/23 12:27:47;;;;;;;5.18;1.40;;;;;;;19.18;46.82;100874.44;16108790;19;131431;-40
2023/10/23 12:33:09;;;;;;;5.70;1.20;;;;;;;19.16;46.62;100869.13;16109558;19;131298;-41
2023/10/23 12:38:44;;;;;;;8.82;1.20;;;;;;;19.16;46.68;100855.28;16107734;19;130921;-41
2023/10/23 12:44:06;;;;;;;3.95;1.20;;;;;;;19.16;46.64;100848.91;16106539;19;129608;-40
2023/10/23 12:49:28;;;;;;;4.53;1.40;;;;;;;19.15;46.40;100838.91;16109108;19;131874;-41
2023/10/23 12:54:50;;;;;;;4.03;1.13;;;;;;;19.13;46.83;100835.53;16111081;19;129855;-40
2023/10/23 13:00:13;;;;;;;4.63;1.17;;;;;;;19.12;46.41;100820.84;16110843;19;130050;-40
2023/10/23 13:05:36;;;;;;;7.95;1.35;;;;;;;19.13;46.85;100810.56;16124559;19;133989;-42
2023/10/23 13:10:58;;;;;;;3.28;1.08;;;;;;;19.10;46.41;100813.84;16125132;19;131677;-41
2023/10/23 13:16:22;;;;;;;4.80;1.30;;;;;;;19.08;46.56;100798.28;16123449;19;129623;-40
2023/10/23 13:21:44;;;;;;;4.85;1.10;;;;;;;19.06;46.29;100799.66;16125318;19;129753;-40
2023/10/23 13:27:06;;;;;;;5.25;1.30;;;;;;;19.06;46.82;100785.78;16126403;19;130396;-40
2023/10/23 13:32:31;;;;;;;3.97;1.23;;;;;;;19.04;46.54;100772.19;16122804;19;128914;-42
2023/10/23 13:37:53;;;;;;;5.88;1.40;;;;;;;19.02;46.83;100752.19;16126297;19;130766;-41
2023/10/23 13:43:15;;;;;;;3.80;1.13;;;;;;;19.00;46.78;100743.28;16123170;19;130256;-41
2023/10/23 13:48:37;;;;;;;4.72;1.10;;;;;;;18.99;46.45;100736.06;16124489;19;131254;-40
2023/10/23 13:53:59;;;;;;;4.43;1.40;;;;;;;18.96;46.47;100719.91;16123703;19;129824;-40
2023/10/23 13:59:21;;;;;;;3.10;1.10;;;;;;;18.94;46.46;100702.72;16124476;19;131382;-42
2023/10/23 14:04:43;;;;;;;3.65;1.17;;;;;;;18.92;46.24;100691.88;16124102;19;129414;-40
2023/10/23 14:10:05;;;;;;;3.30;0.93;;;;;;;18.90;46.46;100676.59;16122967;19;130909;-41
2023/10/23 14:15:27;;;;;;;3.53;1.00;;;;;;;18.89;46.41;100674.91;16119807;19;132247;-40
2023/10/23 14:20:49;;;;;;;3.10;0.95;;;;;;;18.88;46.26;100670.47;16117554;19;129638;-40
2023/10/23 14:26:11;;;;;;;5.28;1.42;;;;;;;18.87;46.28;100663.25;16118862;19;131119;-41
2023/10/23 14:31:33;;;;;;;5.97;1.45;;;;;;;18.84;46.62;100647.09;16116610;19;129803;-40
2023/10/23 14:36:55;;;;;;;7.10;1.27;;;;;;;18.83;46.22;100649.06;16116804;19;130699;-41
2023/10/23 14:42:17;;;;;;;4.60;1.65;;;;;;;18.83;46.30;100645.47;16111818;19;131248;-40
2023/10/23 14:47:39;;;;;;;4.10;1.40;;;;;;;18.82;46.78;100646.56;16120339;19;130033;-40
2023/10/23 14:53:01;;;;;;;2.40;1.15;;;;;;;18.81;46.11;100655.97;16116337;19;129411;-40
2023/10/23 14:58:23;;;;;;;2.20;1.23;;;;;;;18.81;46.38;100667.03;16113667;19;129131;-39
2023/10/23 15:03:45;;;;;;;7.25;1.45;;;;;;;18.79;46.42;100658.97;16117188;19;129208;-39
2023/10/23 15:09:07;;;;;;;3.55;1.42;;;;;;;18.79;46.32;100647.06;16116354;19;129872;-38
2023/10/23 15:14:29;;;;;;;5.68;1.30;;;;;;;18.76;46.81;100640.91;16114012;19;129366;-39
2023/10/23 15:19:54;;;;;;;11.20;1.75;;;;;;;18.77;46.13;100653.69;16114052;19;130068;-45
2023/10/23 15:25:16;;;;;;;9.50;1.67;;;;;;;18.76;46.56;100640.91;16114111;19;129436;-41
2023/10/23 15:30:39;;;;;;;8.07;1.65;;;;;;;18.79;46.54;100633.19;16118172;19;129870;-41
2023/10/23 15:36:02;;;;;;;11.23;1.50;;;;;;;18.80;46.62;100632.09;16114843;19;130188;-41
2023/10/23 15:41:24;;;;;;;16.95;2.47;;;;;;;18.80;46.48;100615.47;16112598;19;129486;-41
2023/10/23 15:46:46;;;;;;;16.08;2.17;;;;;;;18.80;46.25;100604.38;16109631;19;130624;-43
2023/10/23 15:52:08;;;;;;;10.93;1.63;;;;;;;18.77;46.47;100592.72;16112996;19;131095;-42
2023/10/23 15:57:31;;;;;;;17.10;2.40;;;;;;;18.77;46.50;100589.94;16113618;19;133714;-47
2023/10/23 16:02:53;;;;;;;15.88;4.35;;;;;;;18.76;46.74;100593.81;16113400;19;129723;-42
2023/10/23 16:08:16;;;;;;;44.90;10.65;;;;;;;18.77;46.84;100573.31;16111218;19;129679;-43
2023/10/23 16:13:39;;;;;;;69.07;18.52;;;;;;;18.77;46.64;100558.59;16109331;19;129741;-42
2023/10/23 16:19:03;;;;;;;64.03;17.92;;;;;;;18.79;47.14;100547.28;16107350;19;130821;-43
2023/10/23 16:24:25;;;;;;;57.15;16.10;;;;;;;18.79;47.08;100530.66;16108881;19;131432;-45
2023/10/23 16:29:47;;;;;;;48.53;15.20;;;;;;;18.78;47.22;100518.72;16112156;19;131551;-45
2023/10/23 16:35:11;;;;;;;59.35;14.52;;;;;;;18.76;47.08;100505.13;16111330;19;130706;-41
2023/10/23 16:40:34;;;;;;;47.65;13.98;;;;;;;18.73;47.04;100505.63;16104013;19;130043;-44
2023/10/23 16:45:56;;;;;;;37.17;12.77;;;;;;;18.72;47.21;100492.88;16109066;19;132085;-43
2023/10/23 16:51:18;;;;;;;37.65;12.88;;;;;;;18.72;46.99;100495.63;16107658;19;131418;-47
2023/10/23 16:56:40;;;;;;;44.30;11.40;;;;;;;18.72;47.52;100490.09;16109527;19;130560;-43
2023/10/23 17:02:02;;;;;;;36.42;12.52;;;;;;;18.73;47.37;100486.22;16109643;19;130028;-41
2023/10/23 17:07:24;;;;;;;32.15;11.45;;;;;;;18.73;47.32;100489.00;16110393;19;129287;-42
2023/10/23 17:12:46;;;;;;;35.00;10.95;;;;;;;18.75;47.53;100511.75;16107236;19;129855;-46
2023/10/23 17:18:08;;;;;;;36.08;11.05;;;;;;;18.76;47.67;100501.53;16105598;19;130494;-41
2023/10/23 17:23:31;;;;;;;27.45;9.98;;;;;;;18.77;47.56;100512.34;16107535;19;132799;-41
2023/10/23 17:28:55;;;;;;;29.27;9.85;;;;;;;18.80;47.55;100502.66;16106186;19;129859;-42
2023/10/23 17:34:17;;;;;;;33.05;9.32;;;;;;;18.90;47.65;100488.94;16103208;19;131568;-43
2023/10/23 17:39:39;;;;;;;26.95;8.70;;;;;;;19.02;47.74;100485.19;16101486;19;130248;-42
2023/10/23 17:45:02;;;;;;;30.27;8.60;;;;;;;19.23;47.67;100472.41;16097388;19;130559;-42
2023/10/23 17:50:24;;;;;;;25.17;8.80;;;;;;;19.63;47.32;100462.00;16105102;19;130288;-46
2023/10/23 17:55:45;;;;;;;19.67;7.60;;;;;;;20.06;46.73;100460.13;16109018;19;131870;-43
2023/10/23 18:01:11;;;;;;;23.02;7.55;;;;;;;20.41;46.40;100443.94;16111426;19;130452;-39
2023/10/23 18:06:34;;;;;;;23.58;6.45;;;;;;;20.63;46.69;100440.13;16119579;19;131307;-42
2023/10/23 18:11:56;;;;;;;37.88;7.95;;;;;;;20.74;46.61;100422.38;16114432;19;135107;-40
2023/10/23 18:17:18;;;;;;;37.75;7.70;;;;;;;20.78;46.85;100417.97;16117932;19;129733;-42
2023/10/23 18:22:40;;;;;;;36.15;7.78;;;;;;;20.73;46.88;100412.38;16125847;19;129443;-40
2023/10/23 18:28:02;;;;;;;36.60;8.18;;;;;;;20.66;46.81;100407.06;16117166;19;130183;-42
2023/10/23 18:33:28;;;;;;;31.13;7.68;;;;;;;20.54;47.70;100396.19;16123008;19;130257;-42
2023/10/23 18:38:50;;;;;;;24.90;7.28;;;;;;;20.45;47.48;100383.91;16116399;19;131050;-40
2023/10/23 18:44:12;;;;;;;30.35;7.30;;;;;;;20.36;48.03;100375.28;16124812;19;130638;-41
2023/10/23 18:49:34;;;;;;;23.75;7.40;;;;;;;20.28;47.87;100368.31;16116719;19;129666;-40
2023/10/23 18:54:56;;;;;;;27.33;5.82;;;;;;;20.21;48.36;100364.94;16111867;19;130384;-41
2023/10/23 19:00:18;;;;;;;24.25;5.60;;;;;;;20.14;48.12;100350.47;16115437;19;129895;-40
2023/10/23 19:05:41;;;;;;;17.02;5.55;;;;;;;20.07;48.31;100349.84;16111172;19;130211;-40
2023/10/23 19:11:03;;;;;;;21.23;5.65;;;;;;;19.99;48.81;100338.19;16111683;19;131455;-41
2023/10/23 19:16:26;;;;;;;27.55;6.35;;;;;;;19.97;48.64;100318.13;16113640;19;129732;-38
2023/10/23 19:21:48;;;;;;;19.33;4.90;;;;;;;19.91;48.93;100302.56;16113008;19;130712;-42
2023/10/23 19:27:10;;;;;;;17.65;4.93;;;;;;;19.94;49.37;100296.47;16114190;19;131575;-40
2023/10/23 19:32:33;;;;;;;26.02;4.95;;;;;;;20.11;49.02;100287.13;16118039;19;131193;-41
2023/10/23 19:37:55;;;;;;;15.75;4.60;;;;;;;20.40;48.91;100272.78;16117751;19;129652;-39
2023/10/23 19:43:20;;;;;;;22.95;4.38;;;;;;;20.69;48.27;100275.03;16115337;19;131867;-40
2023/10/23 19:48:43;;;;;;;16.77;3.95;;;;;;;20.93;48.11;100264.25;16114331;19;131652;-42
2023/10/23 19:54:05;;;;;;;16.45;3.83;;;;;;;21.15;47.80;100263.97;16114018;19;129392;-40
2023/10/23 19:59:27;;;;;;;19.83;4.65;;;;;;;21.33;47.54;100261.69;16116706;19;130057;-40
2023/10/23 20:04:49;;;;;;;20.63;4.47;;;;;;;21.45;47.44;100253.88;16113103;19;129593;-40
2023/10/23 20:10:14;;;;;;;16.48;3.90;;;;;;;21.48;47.35;100250.53;16114331;19;130873;-41
2023/10/23 20:15:36;;;;;;;19.80;5.23;;;;;;;21.43;47.24;100239.41;16113132;19;129826;-41
2023/10/23 20:20:58;;;;;;;24.88;4.07;;;;;;;21.36;47.24;100250.00;16110792;19;130998;-40
2023/10/23 20:26:20;;;;;;;17.63;3.47;;;;;;;21.25;47.43;100251.16;16110261;19;132130;-41
2023/10/23 20:31:42;;;;;;;18.15;3.38;;;;;;;21.15;47.68;100244.50;16109207;19;130408;-40
2023/10/23 20:37:04;;;;;;;18.20;3.50;;;;;;;21.00;47.88;100228.63;16106788;19;130916;-39
2023/10/23 20:42:33;;;;;;;22.17;3.47;;;;;;;20.90;47.98;100211.97;16108735;19;132581;-39
2023/10/23 20:47:56;;;;;;;19.38;3.78;;;;;;;20.82;48.02;100205.03;16111662;19;132742;-39
2023/10/23 20:53:18;;;;;;;13.82;3.33;;;;;;;20.73;48.71;100195.56;16107882;19;129917;-39
2023/10/23 20:58:40;;;;;;;21.30;2.80;;;;;;;20.64;48.74;100194.44;16110342;19;130058;-40
2023/10/23 21:04:04;;;;;;;24.17;3.15;;;;;;;20.52;48.86;100198.34;16108353;19;130005;-39
2023/10/23 21:09:29;;;;;;;24.58;3.75;;;;;;;20.45;48.82;100194.97;16109755;19;130920;-39
2023/10/23 21:14:51;;;;;;;22.00;3.03;;;;;;;20.35;49.23;100194.97;16109438;19;130956;-39
2023/10/23 21:20:15;;;;;;;14.38;3.00;;;;;;;20.27;49.21;100171.34;16111028;19;129750;-39
2023/10/23 21:25:36;;;;;;;9.88;2.45;;;;;;;20.19;49.34;100167.19;16121459;19;130346;-39
2023/10/23 21:30:59;;;;;;;11.60;2.80;;;;;;;20.12;49.42;100169.41;16127051;19;130770;-39
2023/10/23 21:36:21;;;;;;;13.93;3.60;;;;;;;20.04;49.56;100151.34;16123277;19;129512;-40
2023/10/23 21:41:42;;;;;;;6.68;2.28;;;;;;;19.98;49.36;100164.34;16125672;19;131433;-39
2023/10/23 21:47:04;;;;;;;12.82;2.78;;;;;;;19.93;49.59;100156.00;16122058;19;131015;-39
2023/10/23 21:52:27;;;;;;;10.48;2.20;;;;;;;19.88;49.52;100141.28;16124386;19;129497;-39
2023/10/23 21:57:50;;;;;;;7.15;2.33;;;;;;;19.83;49.86;100142.09;16124801;19;130054;-39
2023/10/23 22:03:12;;;;;;;12.32;2.42;;;;;;;19.78;49.88;100134.59;16120205;19;131423;-39
2023/10/23 22:08:37;;;;;;;11.75;2.10;;;;;;;19.74;49.38;100129.84;16122291;19;130605;-39
2023/10/23 22:13:59;;;;;;;;;;;;;;;19.66;49.95;100128.44;16122600;19;129609;-39
2023/10/23 22:19:21;;;;;;;6.07;1.92;;;;;;;19.65;49.80;100124.00;16119506;19;129436;-39
2023/10/23 22:24:44;;;;;;;5.43;1.65;;;;;;;19.62;49.47;100119.03;16116877;19;129797;-39
2023/10/23 22:30:07;;;;;;;6.03;1.63;;;;;;;19.59;49.66;100128.69;16112347;19;129858;-40
2023/10/23 22:35:29;;;;;;;7.10;1.73;;;;;;;19.56;49.53;100132.03;16119187;19;129532;-39
2023/10/23 22:40:53;;;;;;;5.67;1.60;;;;;;;19.53;49.69;100129.81;16119456;19;129807;-40
2023/10/23 22:46:15;;;;;;;7.22;1.60;;;;;;;19.51;49.68;100137.56;16115534;19;131142;-39
2023/10/23 22:51:38;;;;;;;4.07;1.42;;;;;;;19.48;49.62;100138.09;16116516;19;130591;-39
2023/10/23 22:57:04;;;;;;;4.97;1.70;;;;;;;19.46;49.58;100138.38;16116823;19;130255;-40
2023/10/23 23:02:26;;;;;;;5.40;1.50;;;;;;;19.42;50.03;100120.59;16114851;19;130929;-39
2023/10/23 23:07:50;;;;;;;4.82;1.45;;;;;;;19.39;49.59;100129.44;16115191;19;129744;-39
2023/10/23 23:13:13;;;;;;;4.60;1.23;;;;;;;19.36;49.86;100139.16;16116851;19;131091;-39
2023/10/23 23:18:38;;;;;;;4.72;1.50;;;;;;;19.35;49.66;100144.97;16117755;19;131114;-39
2023/10/23 23:24:00;;;;;;;6.43;1.50;;;;;;;19.33;50.05;100136.09;16118152;19;131520;-39
2023/10/23 23:29:22;;;;;;;2.92;1.23;;;;;;;19.32;50.05;100145.53;16118436;19;129413;-39
2023/10/23 23:34:43;;;;;;;4.97;1.38;;;;;;;19.30;50.05;100154.13;16114615;19;129349;-39
2023/10/23 23:40:06;;;;;;;6.15;1.65;;;;;;;19.27;50.08;100137.16;16113110;19;130068;-39
2023/10/23 23:45:28;;;;;;;3.33;1.35;;;;;;;19.26;49.94;100141.88;16114466;19;129839;-39
2023/10/23 23:50:50;;;;;;;3.38;1.55;;;;;;;19.24;49.89;100146.88;16116380;19;129296;-39
2023/10/23 23:56:12;;;;;;;2.70;1.00;;;;;;;19.24;50.01;100149.63;16116971;19;131464;-39
